ELA weather

Eagle Lake Airport
Eagle Lake, Texas, United States

Public forecast

Using degrees Fahrenheit for public forecast. Weather courtesy of forecast.io.

METAR (pilot weather report)

Retrieved 2019/06/20 08:35 UTC (0 seconds ago):

KELA 200835Z AUTO 17006KT 10SM CLR 27/26 A2981 RMK AO2 T02680255

TAF (pilot weather forecast)

Closest forecast is Sugar Land Regional Airport, 34.8 nm (64.4 km) E. Retrieved 2019/06/20 06:42 UTC (2 hours ago):

TAF KSGR 200540Z 2006/2106 19010KT P6SM SKC FM201000 18007KT P6SM SCT009 SCT015 BKN250 FM201500 19011G20KT P6SM SCT025 SCT250 FM210100 17010KT P6SM FEW025 FEW250